createdAt,value
2017-10-24T00:00:03.160Z,54.07
2017-10-24T00:00:35.244Z,53.88
2017-10-24T00:01:07.244Z,53.88
2017-10-24T00:01:39.258Z,53.97
2017-10-24T00:02:11.328Z,53.37
2017-10-24T00:02:43.411Z,53.78
2017-10-24T00:03:15.550Z,53.88
2017-10-24T00:03:48.098Z,53.49
2017-10-24T00:04:20.210Z,53.49
2017-10-24T00:04:52.401Z,53.69
2017-10-24T00:05:24.544Z,53.49
2017-10-24T00:05:56.756Z,53.59
2017-10-24T00:06:28.897Z,53.97
2017-10-24T00:07:01.054Z,53.88
2017-10-24T00:07:33.135Z,53.39
2017-10-24T00:08:05.317Z,53.88
2017-10-24T00:08:37.402Z,53.88
2017-10-24T00:09:09.663Z,53.88
2017-10-24T00:09:42.000Z,53.39
2017-10-24T00:10:14.063Z,53.49
2017-10-24T00:10:46.367Z,53.69
2017-10-24T00:11:18.632Z,53.69
2017-10-24T00:11:50.789Z,53.69
2017-10-24T00:12:22.814Z,53.2
2017-10-24T00:12:54.943Z,53.59
2017-10-24T00:13:27.016Z,53.69
2017-10-24T00:13:59.141Z,53.2
2017-10-24T00:14:31.219Z,53.39
2017-10-24T00:15:03.431Z,53.49
2017-10-24T00:15:35.507Z,53.3
2017-10-24T00:16:07.674Z,53.69
2017-10-24T00:16:39.891Z,53.2
2017-10-24T00:17:12.136Z,53.59
2017-10-24T00:17:44.317Z,53.49
2017-10-24T00:18:16.402Z,53.39
2017-10-24T00:18:48.556Z,53.3
2017-10-24T00:19:20.710Z,53.39
2017-10-24T00:19:53.044Z,53.49
2017-10-24T00:20:25.182Z,53.49
2017-10-24T00:20:57.390Z,53.39
2017-10-24T00:21:29.391Z,53.11
2017-10-24T00:22:01.482Z,53.3
2017-10-24T00:22:33.614Z,53.17
2017-10-24T00:23:05.857Z,53.3
2017-10-24T00:23:38.045Z,53.3
2017-10-24T00:24:10.127Z,53.2
2017-10-24T00:24:42.256Z,53.2
2017-10-24T00:25:14.343Z,53.69
2017-10-24T00:25:46.506Z,53.39
2017-10-24T00:26:18.576Z,53.11
2017-10-24T00:26:50.704Z,52.81
2017-10-24T00:27:22.770Z,53.59
2017-10-24T00:27:54.897Z,53.11
2017-10-24T00:28:27.027Z,53.59
2017-10-24T00:28:59.228Z,53.2
2017-10-24T00:29:31.303Z,53.3
2017-10-24T00:30:03.373Z,53.11
2017-10-24T00:30:35.403Z,53.49
2017-10-24T00:31:07.594Z,53.2
2017-10-24T00:31:39.691Z,53.2
2017-10-24T00:32:11.757Z,53.59
2017-10-24T00:32:43.948Z,53.11
2017-10-24T00:33:16.023Z,53.2
2017-10-24T00:33:48.104Z,53.2
2017-10-24T00:34:20.356Z,53.49
2017-10-24T00:34:52.625Z,53.59
2017-10-24T00:35:24.783Z,53.49
2017-10-24T00:35:56.958Z,53.3
2017-10-24T00:36:29.089Z,53.3
2017-10-24T00:37:01.121Z,53.39
2017-10-24T00:37:33.363Z,52.91
2017-10-24T00:38:05.603Z,53.3
2017-10-24T00:38:37.763Z,53.69
2017-10-24T00:39:09.851Z,53.39
2017-10-24T00:39:41.995Z,53.2
2017-10-24T00:40:14.093Z,53.3
2017-10-24T00:40:46.278Z,53.3
2017-10-24T00:41:18.389Z,53.39
2017-10-24T00:41:50.522Z,53.2
2017-10-24T00:42:22.735Z,53.3
2017-10-24T00:42:54.878Z,53.11
2017-10-24T00:43:26.963Z,53.3
2017-10-24T00:43:59.038Z,53.11
2017-10-24T00:44:31.236Z,53.2
2017-10-24T00:45:03.436Z,53.2
2017-10-24T00:45:35.621Z,53.11
2017-10-24T00:46:08.643Z,53.3
2017-10-24T00:46:40.766Z,53.11
2017-10-24T00:47:13.723Z,53.2
2017-10-24T00:47:45.823Z,53.2
2017-10-24T00:48:18.031Z,53.39
2017-10-24T00:48:50.163Z,53.39
2017-10-24T00:49:22.246Z,52.81
2017-10-24T00:49:54.384Z,53.11
2017-10-24T00:50:26.625Z,53.01
2017-10-24T00:50:58.889Z,52.91
2017-10-24T00:51:31.122Z,52.91
2017-10-24T00:52:04.125Z,53.49
2017-10-24T00:52:36.209Z,53.49
2017-10-24T00:53:08.411Z,52.91
2017-10-24T00:53:40.542Z,53.39
2017-10-24T00:54:12.577Z,53.39
2017-10-24T00:54:44.682Z,53.01
2017-10-24T00:55:16.702Z,53.01
2017-10-24T00:55:48.839Z,53.01
2017-10-24T00:56:20.904Z,53.2
2017-10-24T00:56:53.038Z,53.01
2017-10-24T00:57:25.160Z,53.01
2017-10-24T00:57:58.192Z,52.81
2017-10-24T00:58:30.277Z,52.72
2017-10-24T00:59:02.462Z,52.72
2017-10-24T00:59:34.605Z,52.81
2017-10-24T01:00:06.754Z,53.3
2017-10-24T01:00:38.838Z,53.11
2017-10-24T01:01:10.987Z,52.81
2017-10-24T01:01:43.054Z,53.2
2017-10-24T01:02:15.193Z,53.01
2017-10-24T01:02:48.027Z,53.11
2017-10-24T01:03:20.102Z,52.91
2017-10-24T01:03:52.241Z,53.01
2017-10-24T01:04:24.383Z,52.72
2017-10-24T01:04:56.514Z,52.81
2017-10-24T01:05:28.646Z,52.91
2017-10-24T01:06:00.673Z,52.91
2017-10-24T01:06:32.932Z,52.72
2017-10-24T01:07:05.077Z,52.81
2017-10-24T01:07:37.218Z,52.62
2017-10-24T01:08:09.358Z,53.01
2017-10-24T01:08:41.527Z,52.91
2017-10-24T01:09:13.622Z,52.62
2017-10-24T01:09:45.874Z,52.62
2017-10-24T01:10:18.083Z,52.72
2017-10-24T01:10:50.179Z,53.11
2017-10-24T01:11:22.248Z,53.01
2017-10-24T01:11:54.349Z,53.11
2017-10-24T01:12:26.540Z,53.11
2017-10-24T01:12:58.772Z,52.53
2017-10-24T01:13:30.848Z,52.91
2017-10-24T01:14:02.946Z,53.01
2017-10-24T01:14:35.092Z,52.81
2017-10-24T01:15:07.105Z,53.11
2017-10-24T01:15:39.244Z,53.11
2017-10-24T01:16:12.234Z,53.11
2017-10-24T01:16:44.425Z,52.62
2017-10-24T01:17:16.685Z,52.91
2017-10-24T01:17:48.766Z,52.62
2017-10-24T01:18:20.913Z,52.62
2017-10-24T01:18:53.018Z,53.01
2017-10-24T01:19:25.054Z,53.01
2017-10-24T01:19:57.189Z,52.81
2017-10-24T01:20:29.201Z,52.53
2017-10-24T01:21:01.242Z,52.62
2017-10-24T01:21:33.564Z,53.11
2017-10-24T01:22:05.724Z,53.01
2017-10-24T01:22:37.857Z,52.91
2017-10-24T01:23:09.979Z,53.11
2017-10-24T01:23:42.126Z,52.72
2017-10-24T01:24:14.256Z,52.81
2017-10-24T01:24:46.478Z,52.91
2017-10-24T01:25:18.707Z,52.91
2017-10-24T01:25:50.900Z,52.72
2017-10-24T01:26:23.098Z,53.01
2017-10-24T01:26:55.180Z,52.91
2017-10-24T01:27:27.314Z,52.72
2017-10-24T01:27:59.404Z,52.72
2017-10-24T01:28:31.448Z,52.72
2017-10-24T01:29:03.477Z,52.91
2017-10-24T01:29:35.501Z,53.01
2017-10-24T01:30:07.585Z,52.81
2017-10-24T01:30:39.720Z,52.91
2017-10-24T01:31:11.866Z,52.72
2017-10-24T01:31:43.997Z,52.81
2017-10-24T01:32:16.282Z,52.91
2017-10-24T01:32:48.355Z,53.01
2017-10-24T01:33:20.465Z,52.53
2017-10-24T01:33:52.702Z,52.72
2017-10-24T01:34:24.989Z,52.72
2017-10-24T01:34:57.176Z,52.91
2017-10-24T01:35:29.339Z,52.91
2017-10-24T01:36:01.466Z,52.91
2017-10-24T01:36:33.548Z,52.91
2017-10-24T01:37:05.754Z,52.91
2017-10-24T01:37:37.887Z,52.72
2017-10-24T01:38:10.117Z,52.72
2017-10-24T01:38:42.371Z,52.91
2017-10-24T01:39:14.413Z,52.72
2017-10-24T01:39:46.676Z,52.91
2017-10-24T01:40:19.748Z,52.91
2017-10-24T01:40:51.889Z,53.01
2017-10-24T01:41:24.081Z,52.62
2017-10-24T01:41:56.165Z,52.62
2017-10-24T01:42:28.309Z,52.91
2017-10-24T01:43:00.399Z,52.81
2017-10-24T01:43:32.531Z,52.81
2017-10-24T01:44:04.693Z,52.81
2017-10-24T01:44:36.887Z,53.01
2017-10-24T01:45:09.088Z,53.01
2017-10-24T01:45:41.168Z,52.62
2017-10-24T01:46:13.383Z,52.72
2017-10-24T01:46:45.459Z,52.91
2017-10-24T01:47:17.549Z,53.11
2017-10-24T01:47:49.624Z,53.01
2017-10-24T01:48:21.707Z,52.53
2017-10-24T01:48:53.799Z,53.01
2017-10-24T01:49:25.804Z,52.72
2017-10-24T01:49:57.875Z,52.72
2017-10-24T01:50:29.952Z,52.91
2017-10-24T01:51:02.060Z,52.72
2017-10-24T01:51:34.332Z,52.72
2017-10-24T01:52:06.521Z,52.62
2017-10-24T01:52:38.662Z,52.91
2017-10-24T01:53:10.823Z,52.91
2017-10-24T01:53:43.020Z,53.11
2017-10-24T01:54:15.243Z,52.53
2017-10-24T01:54:47.385Z,53.11
2017-10-24T01:55:19.467Z,52.91
2017-10-24T01:55:51.536Z,52.62
2017-10-24T01:56:23.623Z,52.43
2017-10-24T01:56:55.833Z,52.72
2017-10-24T01:57:27.972Z,52.72
2017-10-24T01:58:00.098Z,52.33
2017-10-24T01:58:32.242Z,52.62
2017-10-24T01:59:04.314Z,52.72
2017-10-24T01:59:36.558Z,52.72
2017-10-24T02:00:08.688Z,52.62
2017-10-24T02:00:40.963Z,52.72
2017-10-24T02:01:13.079Z,52.33
2017-10-24T02:01:45.166Z,52.72
2017-10-24T02:02:17.304Z,52.33
2017-10-24T02:02:49.456Z,52.62
2017-10-24T02:03:21.552Z,52.81
2017-10-24T02:03:53.691Z,52.53
2017-10-24T02:04:25.889Z,52.72
2017-10-24T02:04:58.030Z,52.53
2017-10-24T02:05:30.280Z,52.53
2017-10-24T02:06:02.316Z,52.62
2017-10-24T02:06:34.562Z,52.62
2017-10-24T02:07:06.703Z,52.62
2017-10-24T02:07:38.929Z,52.62
2017-10-24T02:08:11.057Z,52.81
2017-10-24T02:08:43.252Z,52.23
2017-10-24T02:09:15.476Z,52.81
2017-10-24T02:09:47.682Z,52.72
2017-10-24T02:10:19.895Z,52.53
2017-10-24T02:10:51.993Z,52.23
2017-10-24T02:11:24.092Z,52.53
2017-10-24T02:11:56.407Z,52.23
2017-10-24T02:12:28.594Z,52.33
2017-10-24T02:13:00.679Z,52.62
2017-10-24T02:13:32.904Z,52.72
2017-10-24T02:14:04.993Z,52.23
2017-10-24T02:14:37.122Z,52.23
2017-10-24T02:15:09.217Z,52.72
2017-10-24T02:15:41.295Z,52.43
2017-10-24T02:16:13.501Z,52.43
2017-10-24T02:16:45.537Z,52.33
2017-10-24T02:17:17.772Z,52.23
2017-10-24T02:17:49.974Z,52.43
2017-10-24T02:18:22.063Z,52.62
2017-10-24T02:18:54.152Z,52.72
2017-10-24T02:19:26.339Z,52.43
2017-10-24T02:19:58.419Z,52.23
2017-10-24T02:20:30.551Z,52.33
2017-10-24T02:21:02.693Z,52.62
2017-10-24T02:21:34.817Z,52.72
2017-10-24T02:22:06.847Z,52.62
2017-10-24T02:22:38.916Z,52.72
2017-10-24T02:23:11.053Z,52.23
2017-10-24T02:23:43.205Z,52.81
2017-10-24T02:24:15.242Z,52.43
2017-10-24T02:24:47.350Z,52.62
2017-10-24T02:25:19.452Z,52.72
2017-10-24T02:25:51.686Z,52.81
2017-10-24T02:26:23.983Z,52.72
2017-10-24T02:26:56.005Z,52.81
2017-10-24T02:27:28.100Z,52.33
2017-10-24T02:28:00.229Z,52.62
2017-10-24T02:28:32.320Z,52.33
2017-10-24T02:29:04.461Z,52.62
2017-10-24T02:29:36.598Z,52.91
2017-10-24T02:30:08.668Z,52.62
2017-10-24T02:30:40.809Z,52.33
2017-10-24T02:31:12.817Z,52.75
2017-10-24T02:31:44.957Z,52.81
2017-10-24T02:32:17.102Z,52.81
2017-10-24T02:32:49.303Z,52.62
2017-10-24T02:33:21.480Z,52.62
2017-10-24T02:33:53.643Z,52.72
2017-10-24T02:34:25.723Z,52.36
2017-10-24T02:34:57.815Z,52.65
2017-10-24T02:35:29.986Z,52.81
2017-10-24T02:36:02.195Z,52.72
2017-10-24T02:36:34.397Z,52.45
2017-10-24T02:37:06.535Z,52.65
2017-10-24T02:37:39.274Z,52.23
2017-10-24T02:38:11.541Z,52.72
2017-10-24T02:38:43.739Z,52.53
2017-10-24T02:39:15.926Z,52.36
2017-10-24T02:39:48.028Z,52.75
2017-10-24T02:40:20.193Z,52.45
2017-10-24T02:40:52.309Z,52.75
2017-10-24T02:41:24.406Z,52.65
2017-10-24T02:41:56.430Z,52.75
2017-10-24T02:42:28.565Z,52.72
2017-10-24T02:43:00.613Z,52.75
2017-10-24T02:43:32.723Z,52.33
2017-10-24T02:44:04.864Z,52.45
2017-10-24T02:44:36.878Z,52.65
2017-10-24T02:45:08.956Z,52.75
2017-10-24T02:45:40.992Z,52.55
2017-10-24T02:46:13.116Z,52.65
2017-10-24T02:46:45.229Z,52.45
2017-10-24T02:47:17.393Z,52.45
2017-10-24T02:47:49.597Z,52.45
2017-10-24T02:48:21.699Z,52.45
2017-10-24T02:48:53.838Z,52.65
2017-10-24T02:49:25.966Z,52.55
2017-10-24T02:49:58.096Z,52.62
2017-10-24T02:50:30.356Z,52.75
2017-10-24T02:51:02.434Z,52.53
2017-10-24T02:51:34.589Z,52.45
2017-10-24T02:52:07.284Z,52.75
2017-10-24T02:52:39.362Z,52.65
2017-10-24T02:53:11.597Z,52.75
2017-10-24T02:53:43.613Z,52.75
2017-10-24T02:54:15.710Z,52.75
2017-10-24T02:54:47.841Z,52.72
2017-10-24T02:55:19.984Z,52.43
2017-10-24T02:55:52.187Z,52.45
2017-10-24T02:56:24.275Z,52.65
2017-10-24T02:56:56.369Z,52.75
2017-10-24T02:57:28.465Z,52.53
2017-10-24T02:58:00.531Z,52.65
2017-10-24T02:58:32.604Z,52.75
2017-10-24T02:59:04.737Z,52.36
2017-10-24T02:59:36.892Z,52.33
2017-10-24T03:00:08.962Z,52.75
2017-10-24T03:00:41.156Z,52.65
2017-10-24T03:01:13.334Z,52.45
2017-10-24T03:01:45.471Z,52.75
2017-10-24T03:02:17.546Z,52.45
2017-10-24T03:02:49.637Z,52.55
2017-10-24T03:03:21.734Z,52.75
2017-10-24T03:03:53.944Z,52.75
2017-10-24T03:04:26.135Z,52.65
2017-10-24T03:04:58.323Z,52.45
2017-10-24T03:05:30.473Z,52.75
2017-10-24T03:06:02.540Z,52.65
2017-10-24T03:06:34.640Z,52.55
2017-10-24T03:07:06.831Z,52.65
2017-10-24T03:07:38.918Z,52.65
2017-10-24T03:08:11.058Z,52.26
2017-10-24T03:08:43.154Z,52.26
2017-10-24T03:09:15.278Z,52.84
2017-10-24T03:09:47.376Z,52.65
2017-10-24T03:10:19.486Z,52.45
2017-10-24T03:10:51.553Z,52.65
2017-10-24T03:11:23.717Z,52.45
2017-10-24T03:11:55.843Z,52.55
2017-10-24T03:12:28.029Z,52.65
2017-10-24T03:13:00.221Z,52.45
2017-10-24T03:13:32.419Z,52.84
2017-10-24T03:14:04.497Z,52.45
2017-10-24T03:14:36.574Z,52.75
2017-10-24T03:15:08.728Z,52.84
2017-10-24T03:15:40.939Z,52.65
2017-10-24T03:16:13.790Z,52.36
2017-10-24T03:16:45.814Z,52.75
2017-10-24T03:17:18.808Z,52.75
2017-10-24T03:17:51.021Z,52.36
2017-10-24T03:18:23.098Z,52.45
2017-10-24T03:18:55.266Z,52.45
2017-10-24T03:19:27.420Z,52.55
2017-10-24T03:19:59.506Z,52.84
2017-10-24T03:20:31.777Z,52.45
2017-10-24T03:21:03.871Z,52.75
2017-10-24T03:21:35.896Z,52.75
2017-10-24T03:22:08.084Z,52.65
2017-10-24T03:22:40.204Z,52.36
2017-10-24T03:23:12.289Z,52.36
2017-10-24T03:23:44.433Z,52.75
2017-10-24T03:24:16.581Z,52.65
2017-10-24T03:24:48.677Z,52.75
2017-10-24T03:25:20.934Z,52.55
2017-10-24T03:25:53.135Z,52.55
2017-10-24T03:26:25.225Z,52.75
2017-10-24T03:26:57.472Z,52.45
2017-10-24T03:27:29.613Z,52.75
2017-10-24T03:28:01.686Z,52.65
2017-10-24T03:28:33.811Z,52.75
2017-10-24T03:29:05.922Z,52.75
2017-10-24T03:29:38.085Z,52.45
2017-10-24T03:30:10.219Z,52.65
2017-10-24T03:30:42.406Z,52.45
2017-10-24T03:31:14.620Z,52.65
2017-10-24T03:31:46.703Z,52.65
2017-10-24T03:32:18.935Z,52.36
2017-10-24T03:32:51.021Z,52.36
2017-10-24T03:33:23.179Z,52.75
2017-10-24T03:33:55.275Z,52.65
2017-10-24T03:34:27.364Z,52.65
2017-10-24T03:34:59.565Z,52.65
2017-10-24T03:35:31.707Z,52.26
2017-10-24T03:36:03.892Z,52.45
2017-10-24T03:36:36.066Z,52.75
2017-10-24T03:37:08.259Z,52.75
2017-10-24T03:37:40.381Z,52.84
2017-10-24T03:38:12.473Z,52.45
2017-10-24T03:38:44.610Z,52.55
2017-10-24T03:39:16.810Z,52.65
2017-10-24T03:39:48.887Z,52.65
2017-10-24T03:40:21.035Z,52.45
2017-10-24T03:40:53.162Z,52.45
2017-10-24T03:41:25.364Z,52.75
2017-10-24T03:41:57.591Z,52.65
2017-10-24T03:42:29.767Z,52.75
2017-10-24T03:43:01.888Z,52.36
2017-10-24T03:43:34.101Z,52.65
2017-10-24T03:44:06.304Z,52.36
2017-10-24T03:44:38.388Z,52.36
2017-10-24T03:45:10.614Z,52.65
2017-10-24T03:45:42.899Z,52.36
2017-10-24T03:46:15.032Z,52.65
2017-10-24T03:46:47.204Z,52.36
2017-10-24T03:47:19.303Z,52.75
2017-10-24T03:47:51.607Z,52.55
2017-10-24T03:48:23.825Z,52.36
2017-10-24T03:48:56.072Z,52.84
2017-10-24T03:49:28.272Z,52.65
2017-10-24T03:50:00.453Z,52.36
2017-10-24T03:50:32.578Z,52.65
2017-10-24T03:51:04.812Z,52.75
2017-10-24T03:51:36.951Z,52.75
2017-10-24T03:52:09.024Z,52.36
2017-10-24T03:52:41.090Z,52.75
2017-10-24T03:53:13.219Z,52.45
2017-10-24T03:53:45.351Z,52.26
2017-10-24T03:54:17.489Z,52.26
2017-10-24T03:54:49.690Z,52.75
2017-10-24T03:55:21.887Z,52.65
2017-10-24T03:55:54.080Z,52.26
2017-10-24T03:56:26.159Z,52.75
2017-10-24T03:56:58.289Z,52.75
2017-10-24T03:57:30.431Z,52.75
2017-10-24T03:58:02.638Z,52.26
2017-10-24T03:58:34.919Z,52.75
2017-10-24T03:59:07.134Z,52.75
2017-10-24T03:59:39.399Z,52.75
2017-10-24T04:00:11.488Z,52.26
2017-10-24T04:00:43.614Z,52.84
2017-10-24T04:01:15.704Z,52.55
2017-10-24T04:01:48.056Z,52.26
2017-10-24T04:02:20.131Z,52.45
2017-10-24T04:02:52.307Z,52.65
2017-10-24T04:03:24.428Z,52.26
2017-10-24T04:03:56.482Z,52.36
2017-10-24T04:04:28.573Z,52.36
2017-10-24T04:05:00.654Z,52.75
2017-10-24T04:05:32.838Z,52.36
2017-10-24T04:06:04.968Z,52.55
2017-10-24T04:06:37.022Z,52.75
2017-10-24T04:07:09.105Z,52.55
2017-10-24T04:07:41.290Z,52.65
2017-10-24T04:08:13.366Z,52.75
2017-10-24T04:08:45.546Z,53.03
2017-10-24T04:09:17.714Z,52.75
2017-10-24T04:09:49.947Z,52.84
2017-10-24T04:10:21.975Z,52.75
2017-10-24T04:10:54.058Z,52.65
2017-10-24T04:11:26.188Z,52.65
2017-10-24T04:11:58.202Z,52.94
2017-10-24T04:12:30.342Z,52.36
2017-10-24T04:13:02.483Z,53.13
2017-10-24T04:13:34.634Z,52.75
2017-10-24T04:14:06.886Z,52.65
2017-10-24T04:14:39.015Z,53.13
2017-10-24T04:15:11.098Z,52.75
2017-10-24T04:15:43.230Z,52.55
2017-10-24T04:16:15.330Z,53.13
2017-10-24T04:16:47.382Z,52.94
2017-10-24T04:17:19.530Z,53.13
2017-10-24T04:17:51.738Z,52.84
2017-10-24T04:18:23.983Z,52.45
2017-10-24T04:18:56.165Z,53.03
2017-10-24T04:19:28.291Z,52.94
2017-10-24T04:20:00.376Z,52.75
2017-10-24T04:20:32.466Z,52.65
2017-10-24T04:21:04.604Z,53.13
2017-10-24T04:21:36.862Z,52.94
2017-10-24T04:22:08.940Z,52.84
2017-10-24T04:22:41.117Z,52.94
2017-10-24T04:23:13.178Z,52.55
2017-10-24T04:23:45.252Z,52.94
2017-10-24T04:24:17.378Z,52.36
2017-10-24T04:24:49.618Z,53.03
2017-10-24T04:25:21.634Z,53.03
2017-10-24T04:25:53.851Z,52.94
2017-10-24T04:26:26.114Z,52.84
2017-10-24T04:26:58.336Z,52.94
2017-10-24T04:27:30.466Z,52.55
2017-10-24T04:28:02.602Z,53.03
2017-10-24T04:28:34.693Z,52.84
2017-10-24T04:29:06.723Z,53.03
2017-10-24T04:29:38.862Z,52.65
2017-10-24T04:30:10.987Z,53.03
2017-10-24T04:30:43.238Z,52.65
2017-10-24T04:31:15.331Z,52.65
2017-10-24T04:31:47.483Z,52.65
2017-10-24T04:32:19.729Z,52.84
2017-10-24T04:32:51.745Z,52.94
2017-10-24T04:33:24.011Z,52.65
2017-10-24T04:33:56.179Z,52.55
2017-10-24T04:34:28.278Z,53.03
2017-10-24T04:35:00.416Z,52.55
2017-10-24T04:35:32.671Z,52.94
2017-10-24T04:36:04.762Z,52.75
2017-10-24T04:36:36.963Z,52.81
2017-10-24T04:37:09.167Z,52.94
2017-10-24T04:37:41.356Z,53.03
2017-10-24T04:38:13.526Z,53.03
2017-10-24T04:38:46.682Z,52.94
2017-10-24T04:39:18.871Z,52.81
2017-10-24T04:39:50.897Z,52.55
2017-10-24T04:40:23.170Z,53.03
2017-10-24T04:40:55.319Z,52.75
2017-10-24T04:41:27.440Z,52.84
2017-10-24T04:41:59.558Z,52.94
2017-10-24T04:42:31.633Z,52.75
2017-10-24T04:43:03.775Z,52.75
2017-10-24T04:43:36.034Z,52.84
2017-10-24T04:44:08.170Z,52.65
2017-10-24T04:44:40.295Z,52.65
2017-10-24T04:45:12.884Z,52.75
2017-10-24T04:45:45.098Z,53.03
2017-10-24T04:46:17.317Z,53.03
2017-10-24T04:46:49.407Z,53.13
2017-10-24T04:47:21.520Z,52.94
2017-10-24T04:47:53.662Z,52.94
2017-10-24T04:48:25.744Z,53.11
2017-10-24T04:48:57.882Z,52.75
2017-10-24T04:49:29.955Z,52.84
2017-10-24T04:50:02.142Z,52.94
2017-10-24T04:50:34.296Z,53.03
2017-10-24T04:51:06.606Z,52.91
2017-10-24T04:51:38.740Z,53.13
2017-10-24T04:52:10.923Z,52.94
2017-10-24T04:52:43.057Z,53.03
2017-10-24T04:53:15.206Z,53.23
2017-10-24T04:53:47.227Z,52.55
2017-10-24T04:54:19.307Z,53.03
2017-10-24T04:54:51.467Z,52.65
2017-10-24T04:55:23.666Z,53.11
2017-10-24T04:55:55.863Z,52.55
2017-10-24T04:56:27.998Z,53.03
2017-10-24T04:57:00.191Z,52.65
2017-10-24T04:57:32.255Z,52.75
2017-10-24T04:58:04.400Z,52.65
2017-10-24T04:58:36.482Z,53.13
2017-10-24T04:59:08.612Z,53.13
2017-10-24T04:59:40.627Z,53.13
2017-10-24T05:00:12.824Z,52.65
2017-10-24T05:00:45.002Z,53.11
2017-10-24T05:01:17.081Z,52.91
2017-10-24T05:01:49.394Z,53.03
2017-10-24T05:02:21.471Z,53.13
2017-10-24T05:02:53.588Z,52.84
2017-10-24T05:03:25.653Z,53.11
2017-10-24T05:03:57.816Z,52.62
2017-10-24T05:04:30.101Z,52.72
2017-10-24T05:05:02.168Z,52.91
2017-10-24T05:05:34.312Z,52.43
2017-10-24T05:06:06.395Z,52.91
2017-10-24T05:06:38.534Z,53.01
2017-10-24T05:07:10.684Z,52.91
2017-10-24T05:07:42.762Z,53.11
2017-10-24T05:08:15.007Z,53.01
2017-10-24T05:08:47.313Z,53.2
2017-10-24T05:09:19.456Z,52.43
2017-10-24T05:09:51.734Z,53.11
2017-10-24T05:10:23.863Z,52.91
2017-10-24T05:10:55.947Z,52.91
2017-10-24T05:11:28.207Z,53.11
2017-10-24T05:12:00.412Z,53.39
2017-10-24T05:12:32.544Z,52.81
2017-10-24T05:13:04.775Z,53.11
2017-10-24T05:13:36.885Z,52.91
2017-10-24T05:14:09.087Z,53.01
2017-10-24T05:14:41.391Z,52.72
2017-10-24T05:15:13.525Z,52.91
2017-10-24T05:15:45.714Z,53.2
2017-10-24T05:16:17.851Z,53.49
2017-10-24T05:16:49.972Z,53.2
2017-10-24T05:17:22.106Z,52.72
2017-10-24T05:17:54.291Z,52.81
2017-10-24T05:18:26.351Z,53.2
2017-10-24T05:18:58.501Z,53.2
2017-10-24T05:19:30.572Z,53.01
2017-10-24T05:20:02.673Z,53.39
2017-10-24T05:20:34.847Z,53.01
2017-10-24T05:21:06.993Z,53.49
2017-10-24T05:21:39.070Z,52.91
2017-10-24T05:22:11.184Z,53.39
2017-10-24T05:22:43.448Z,52.91
2017-10-24T05:23:15.642Z,52.72
2017-10-24T05:23:47.941Z,52.81
2017-10-24T05:24:20.032Z,52.91
2017-10-24T05:24:52.280Z,52.91
2017-10-24T05:25:24.300Z,53.49
2017-10-24T05:25:56.564Z,53.2
2017-10-24T05:26:28.615Z,53.01
2017-10-24T05:27:00.948Z,53.3
2017-10-24T05:27:33.028Z,53.3
2017-10-24T05:28:05.151Z,52.72
2017-10-24T05:28:37.284Z,53.39
2017-10-24T05:29:09.487Z,53.39
2017-10-24T05:29:41.510Z,53.39
2017-10-24T05:30:13.603Z,53.39
2017-10-24T05:30:45.809Z,53.49
2017-10-24T05:31:17.961Z,53.11
2017-10-24T05:31:50.159Z,53.39
2017-10-24T05:32:22.305Z,53.3
2017-10-24T05:32:54.496Z,53.11
2017-10-24T05:33:26.655Z,52.91
2017-10-24T05:33:58.696Z,53.39
2017-10-24T05:34:30.898Z,53.01
2017-10-24T05:35:02.980Z,53.2
2017-10-24T05:35:35.149Z,52.91
2017-10-24T05:36:07.238Z,53.2
2017-10-24T05:36:39.381Z,53.33
2017-10-24T05:37:11.634Z,53.11
2017-10-24T05:37:43.865Z,53.01
2017-10-24T05:38:16.061Z,52.91
2017-10-24T05:38:48.313Z,52.91
2017-10-24T05:39:20.481Z,53.01
2017-10-24T05:39:52.721Z,53.11
2017-10-24T05:40:24.738Z,53.3
2017-10-24T05:40:56.995Z,53.3
2017-10-24T05:41:29.179Z,53.11
2017-10-24T05:42:01.322Z,53.11
2017-10-24T05:42:33.397Z,53.3
2017-10-24T05:43:05.663Z,53.11
2017-10-24T05:43:37.853Z,53.49
2017-10-24T05:44:09.958Z,53.39
2017-10-24T05:44:42.050Z,53.2
2017-10-24T05:45:14.196Z,53.39
2017-10-24T05:45:46.331Z,53.01
2017-10-24T05:46:19.392Z,53.3
2017-10-24T05:46:51.555Z,53.01
2017-10-24T05:47:23.748Z,53.11
2017-10-24T05:47:55.762Z,53.39
2017-10-24T05:48:27.847Z,53.2
2017-10-24T05:49:00.047Z,53.3
2017-10-24T05:49:32.232Z,53.2
2017-10-24T05:50:04.506Z,53.11
2017-10-24T05:50:36.609Z,53.01
2017-10-24T05:51:08.747Z,53.3
2017-10-24T05:51:40.945Z,53.39
2017-10-24T05:52:13.065Z,53.11
2017-10-24T05:52:45.290Z,53.69
2017-10-24T05:53:17.426Z,53.39
2017-10-24T05:53:49.542Z,53.2
2017-10-24T05:54:21.712Z,53.39
2017-10-24T05:54:53.900Z,53.2
2017-10-24T05:55:26.076Z,53.03
2017-10-24T05:55:58.198Z,53.2
2017-10-24T05:56:30.260Z,53.2
2017-10-24T05:57:02.462Z,53.2
2017-10-24T05:57:34.569Z,53.49
2017-10-24T05:58:06.609Z,53.2
2017-10-24T05:58:38.823Z,53.01
2017-10-24T05:59:11.021Z,53.11
2017-10-24T05:59:43.093Z,53.2
2017-10-24T06:00:15.171Z,53.49
2017-10-24T06:00:47.352Z,53.11
2017-10-24T06:01:19.543Z,53.49
2017-10-24T06:01:51.685Z,53.3
2017-10-24T06:02:23.762Z,53.49
2017-10-24T06:02:55.851Z,53.49
2017-10-24T06:03:28.606Z,53.11
2017-10-24T06:04:00.707Z,53.2
2017-10-24T06:04:32.863Z,53.01
2017-10-24T06:05:05.063Z,53.11
2017-10-24T06:05:37.187Z,53.2
2017-10-24T06:06:09.254Z,53.11
2017-10-24T06:06:41.339Z,53.3
2017-10-24T06:07:13.564Z,53.3
2017-10-24T06:07:45.782Z,53.39
2017-10-24T06:08:17.867Z,53.3
2017-10-24T06:08:50.051Z,53.49
2017-10-24T06:09:22.192Z,53.11
2017-10-24T06:09:54.268Z,53.11
2017-10-24T06:10:26.477Z,53.11
2017-10-24T06:10:58.519Z,53.3
2017-10-24T06:11:30.772Z,53.01
2017-10-24T06:12:03.010Z,53.01
2017-10-24T06:12:35.135Z,53.2
2017-10-24T06:13:07.900Z,53.11
2017-10-24T06:13:40.146Z,53.3
2017-10-24T06:14:12.301Z,53.11
2017-10-24T06:14:44.399Z,53.59
2017-10-24T06:15:16.611Z,53.2
2017-10-24T06:15:49.371Z,53.3
2017-10-24T06:16:21.641Z,53.59
2017-10-24T06:16:53.769Z,53.59
2017-10-24T06:17:25.902Z,53.39
2017-10-24T06:17:57.987Z,52.81
2017-10-24T06:18:30.113Z,53.59
2017-10-24T06:19:02.292Z,53.11
2017-10-24T06:19:34.567Z,53.2
2017-10-24T06:20:06.699Z,52.91
2017-10-24T06:20:38.845Z,53.2
2017-10-24T06:21:10.894Z,53.59
2017-10-24T06:21:42.995Z,53.59
2017-10-24T06:22:15.069Z,53.2
2017-10-24T06:22:47.116Z,53.11
2017-10-24T06:23:19.144Z,53.11
2017-10-24T06:23:51.222Z,53.01
2017-10-24T06:24:23.367Z,53.2
2017-10-24T06:24:55.531Z,53.01
2017-10-24T06:25:27.746Z,53.2
2017-10-24T06:26:00.000Z,53.2
2017-10-24T06:26:32.160Z,53.3
2017-10-24T06:27:04.327Z,53.3
2017-10-24T06:27:36.644Z,53.2
2017-10-24T06:28:08.715Z,53.3
2017-10-24T06:28:40.872Z,53.2
2017-10-24T06:29:13.081Z,53.3
2017-10-24T06:29:45.176Z,53.49
2017-10-24T06:30:17.697Z,53.3
2017-10-24T06:30:49.954Z,53.3
2017-10-24T06:31:22.015Z,53.3
2017-10-24T06:31:54.332Z,53.2
2017-10-24T06:32:26.572Z,53.3
2017-10-24T06:32:58.814Z,53.59
2017-10-24T06:33:31.017Z,53.3
2017-10-24T06:34:03.145Z,53.39
2017-10-24T06:34:35.331Z,53.3
2017-10-24T06:35:07.492Z,53.49
2017-10-24T06:35:39.633Z,53.3
2017-10-24T06:36:12.003Z,53.3
2017-10-24T06:36:44.032Z,53.11
2017-10-24T06:37:16.211Z,53.59
2017-10-24T06:37:48.409Z,53.3
2017-10-24T06:38:20.658Z,53.3
2017-10-24T06:38:52.856Z,53.39
2017-10-24T06:39:24.992Z,53.59
2017-10-24T06:39:57.138Z,53.49
2017-10-24T06:40:29.340Z,53.69
2017-10-24T06:41:01.667Z,53.2
2017-10-24T06:41:33.855Z,53.3
2017-10-24T06:42:06.034Z,53.59
2017-10-24T06:42:38.155Z,53.39
2017-10-24T06:43:10.332Z,53.49
2017-10-24T06:43:42.519Z,53.3
2017-10-24T06:44:14.582Z,53.39
2017-10-24T06:44:46.700Z,53.3
2017-10-24T06:45:18.862Z,53.3
2017-10-24T06:45:51.129Z,53.39
2017-10-24T06:46:23.279Z,53.49
2017-10-24T06:46:55.347Z,53.49
2017-10-24T06:47:27.434Z,53.69
2017-10-24T06:47:59.537Z,53.59
2017-10-24T06:48:31.916Z,53.3
2017-10-24T06:49:04.008Z,53.49
2017-10-24T06:49:36.272Z,53.39
2017-10-24T06:50:08.470Z,53.49
2017-10-24T06:50:40.627Z,53.2
2017-10-24T06:51:12.919Z,53.3
2017-10-24T06:51:45.065Z,53.39
2017-10-24T06:52:17.283Z,53.49
2017-10-24T06:52:49.456Z,53.49
2017-10-24T06:53:21.555Z,53.59
2017-10-24T06:53:53.636Z,53.3
2017-10-24T06:54:25.817Z,53.39
2017-10-24T06:54:58.583Z,53.59
2017-10-24T06:55:31.408Z,53.3
2017-10-24T06:56:03.646Z,53.39